createdAt,value
2017-10-15T00:00:37.054Z,1014.8
2017-10-15T00:01:38.679Z,1014.9
2017-10-15T00:02:40.285Z,1014.8
2017-10-15T00:03:41.903Z,1014.8
2017-10-15T00:04:43.513Z,1014.9
2017-10-15T00:05:45.116Z,1014.9
2017-10-15T00:06:46.735Z,1014.8
2017-10-15T00:07:48.339Z,1014.8
2017-10-15T00:08:49.950Z,1014.8
2017-10-15T00:09:51.558Z,1014.8
2017-10-15T00:10:53.166Z,1014.8
2017-10-15T00:11:54.799Z,1014.7
2017-10-15T00:12:56.404Z,1014.8
2017-10-15T00:13:58.023Z,1014.8
2017-10-15T00:14:59.628Z,1014.8
2017-10-15T00:16:01.238Z,1014.8
2017-10-15T00:17:02.849Z,1014.8
2017-10-15T00:18:04.466Z,1014.8
2017-10-15T00:19:06.080Z,1014.8
2017-10-15T00:20:07.700Z,1014.8
2017-10-15T00:21:09.306Z,1014.8
2017-10-15T00:22:10.910Z,1014.8
2017-10-15T00:23:12.528Z,1014.8
2017-10-15T00:24:14.143Z,1014.8
2017-10-15T00:25:15.749Z,1014.8
2017-10-15T00:26:17.353Z,1014.8
2017-10-15T00:27:18.965Z,1014.7
2017-10-15T00:28:20.577Z,1014.7
2017-10-15T00:29:22.185Z,1014.7
2017-10-15T00:30:23.792Z,1014.7
2017-10-15T00:31:25.399Z,1014.7
2017-10-15T00:32:27.014Z,1014.7
2017-10-15T00:33:28.655Z,1014.7
2017-10-15T00:34:30.263Z,1014.7
2017-10-15T00:35:31.872Z,1014.7
2017-10-15T00:36:33.486Z,1014.7
2017-10-15T00:37:35.092Z,1014.7
2017-10-15T00:38:36.707Z,1014.8
2017-10-15T00:39:38.317Z,1014.8
2017-10-15T00:40:39.928Z,1014.8
2017-10-15T00:41:41.537Z,1014.8
2017-10-15T00:42:43.146Z,1014.8
2017-10-15T00:43:44.751Z,1014.7
2017-10-15T00:44:46.363Z,1014.7
2017-10-15T00:45:47.979Z,1014.7
2017-10-15T00:46:49.581Z,1014.7
2017-10-15T00:47:51.198Z,1014.7
2017-10-15T00:48:52.802Z,1014.7
2017-10-15T00:49:54.417Z,1014.6
2017-10-15T00:50:56.020Z,1014.7
2017-10-15T00:51:57.637Z,1014.6
2017-10-15T00:52:59.241Z,1014.6
2017-10-15T00:54:00.868Z,1014.6
2017-10-15T00:55:02.463Z,1014.6
2017-10-15T00:56:04.071Z,1014.6
2017-10-15T00:57:05.681Z,1014.6
2017-10-15T00:58:07.293Z,1014.6
2017-10-15T00:59:08.898Z,1014.6
2017-10-15T01:00:10.506Z,1014.6
2017-10-15T01:01:12.120Z,1014.6
2017-10-15T01:02:13.721Z,1014.6
2017-10-15T01:03:15.333Z,1014.6
2017-10-15T01:04:16.937Z,1014.6
2017-10-15T01:05:18.548Z,1014.6
2017-10-15T01:06:20.151Z,1014.6
2017-10-15T01:07:21.767Z,1014.6
2017-10-15T01:08:23.373Z,1014.6
2017-10-15T01:09:24.979Z,1014.6
2017-10-15T01:10:26.590Z,1014.6
2017-10-15T01:11:28.195Z,1014.6
2017-10-15T01:12:29.812Z,1014.6
2017-10-15T01:13:31.426Z,1014.6
2017-10-15T01:14:33.037Z,1014.5
2017-10-15T01:15:34.647Z,1014.6
2017-10-15T01:16:36.257Z,1014.6
2017-10-15T01:17:37.867Z,1014.6
2017-10-15T01:18:39.473Z,1014.6
2017-10-15T01:19:41.084Z,1014.6
2017-10-15T01:20:42.696Z,1014.6
2017-10-15T01:21:44.308Z,1014.6
2017-10-15T01:22:45.924Z,1014.6
2017-10-15T01:23:47.527Z,1014.6
2017-10-15T01:24:49.143Z,1014.6
2017-10-15T01:25:50.743Z,1014.6
2017-10-15T01:26:52.349Z,1014.6
2017-10-15T01:27:53.955Z,1014.6
2017-10-15T01:28:55.569Z,1014.6
2017-10-15T01:29:57.178Z,1014.5
2017-10-15T01:30:58.790Z,1014.5
2017-10-15T01:32:00.393Z,1014.5
2017-10-15T01:33:02.008Z,1014.5
2017-10-15T01:34:03.613Z,1014.5
2017-10-15T01:35:05.222Z,1014.5
2017-10-15T01:36:06.833Z,1014.5
2017-10-15T01:37:08.451Z,1014.5
2017-10-15T01:38:10.046Z,1014.5
2017-10-15T01:39:11.659Z,1014.5
2017-10-15T01:40:13.262Z,1014.5
2017-10-15T01:41:14.874Z,1014.5
2017-10-15T01:42:16.480Z,1014.5
2017-10-15T01:43:18.088Z,1014.4
2017-10-15T01:44:19.701Z,1014.5
2017-10-15T01:45:21.306Z,1014.5
2017-10-15T01:46:22.918Z,1014.5
2017-10-15T01:47:24.523Z,1014.5
2017-10-15T01:48:26.136Z,1014.5
2017-10-15T01:49:27.740Z,1014.5
2017-10-15T01:50:29.358Z,1014.5
2017-10-15T01:51:30.970Z,1014.5
2017-10-15T01:52:32.571Z,1014.5
2017-10-15T01:53:34.176Z,1014.5
2017-10-15T01:54:35.787Z,1014.5
2017-10-15T01:55:37.393Z,1014.5
2017-10-15T01:56:45.530Z,1014.5
2017-10-15T01:57:47.140Z,1014.5
2017-10-15T01:58:48.751Z,1014.6
2017-10-15T01:59:50.350Z,1014.6
2017-10-15T02:00:51.963Z,1014.5
2017-10-15T02:01:53.570Z,1014.5
2017-10-15T02:02:55.174Z,1014.5
2017-10-15T02:03:56.788Z,1014.6
2017-10-15T02:04:58.391Z,1014.5
2017-10-15T02:05:59.998Z,1014.6
2017-10-15T02:07:01.628Z,1014.6
2017-10-15T02:08:03.232Z,1014.6
2017-10-15T02:09:04.852Z,1014.6
2017-10-15T02:10:06.450Z,1014.6
2017-10-15T02:11:08.057Z,1014.5
2017-10-15T02:12:09.665Z,1014.5
2017-10-15T02:13:11.285Z,1014.5
2017-10-15T02:14:12.887Z,1014.5
2017-10-15T02:15:14.489Z,1014.5
2017-10-15T02:16:16.097Z,1014.5
2017-10-15T02:17:17.706Z,1014.5
2017-10-15T02:18:19.317Z,1014.5
2017-10-15T02:19:20.930Z,1014.5
2017-10-15T02:20:22.557Z,1014.4
2017-10-15T02:21:24.143Z,1014.5
2017-10-15T02:22:25.753Z,1014.4
2017-10-15T02:23:27.358Z,1014.5
2017-10-15T02:24:28.968Z,1014.4
2017-10-15T02:25:30.571Z,1014.5
2017-10-15T02:26:32.178Z,1014.4
2017-10-15T02:27:33.792Z,1014.5
2017-10-15T02:28:35.401Z,1014.5
2017-10-15T02:29:37.007Z,1014.5
2017-10-15T02:30:38.614Z,1014.5
2017-10-15T02:31:40.225Z,1014.5
2017-10-15T02:32:41.842Z,1014.5
2017-10-15T02:33:43.436Z,1014.5
2017-10-15T02:34:45.056Z,1014.5
2017-10-15T02:35:46.665Z,1014.5
2017-10-15T02:36:48.274Z,1014.5
2017-10-15T02:37:49.886Z,1014.5
2017-10-15T02:38:51.494Z,1014.5
2017-10-15T02:39:53.098Z,1014.5
2017-10-15T02:40:54.708Z,1014.5
2017-10-15T02:41:56.320Z,1014.5
2017-10-15T02:42:57.926Z,1014.5
2017-10-15T02:43:59.541Z,1014.6
2017-10-15T02:45:01.141Z,1014.6
2017-10-15T02:46:02.753Z,1014.6
2017-10-15T02:47:04.356Z,1014.5
2017-10-15T02:48:05.986Z,1014.6
2017-10-15T02:49:07.592Z,1014.6
2017-10-15T02:50:09.198Z,1014.6
2017-10-15T02:51:10.808Z,1014.6
2017-10-15T02:52:12.409Z,1014.6
2017-10-15T02:53:14.018Z,1014.6
2017-10-15T02:54:15.655Z,1014.6
2017-10-15T02:55:17.261Z,1014.6
2017-10-15T02:56:18.872Z,1014.6
2017-10-15T02:57:20.482Z,1014.6
2017-10-15T02:58:22.085Z,1014.5
2017-10-15T02:59:23.697Z,1014.6
2017-10-15T03:00:25.301Z,1014.5
2017-10-15T03:01:26.913Z,1014.6
2017-10-15T03:02:28.516Z,1014.6
2017-10-15T03:03:30.133Z,1014.5
2017-10-15T03:04:31.735Z,1014.5
2017-10-15T03:05:33.339Z,1014.5
2017-10-15T03:06:34.950Z,1014.5
2017-10-15T03:07:36.558Z,1014.5
2017-10-15T03:08:38.166Z,1014.5
2017-10-15T03:09:39.776Z,1014.4
2017-10-15T03:10:41.381Z,1014.4
2017-10-15T03:11:42.992Z,1014.4
2017-10-15T03:12:44.595Z,1014.4
2017-10-15T03:13:46.204Z,1014.4
2017-10-15T03:14:47.808Z,1014.4
2017-10-15T03:15:49.414Z,1014.4
2017-10-15T03:16:51.026Z,1014.4
2017-10-15T03:17:52.637Z,1014.4
2017-10-15T03:18:54.260Z,1014.4
2017-10-15T03:19:55.866Z,1014.4
2017-10-15T03:20:57.477Z,1014.4
2017-10-15T03:21:59.080Z,1014.4
2017-10-15T03:23:00.691Z,1014.4
2017-10-15T03:24:02.296Z,1014.3
2017-10-15T03:25:03.913Z,1014.4
2017-10-15T03:26:05.522Z,1014.4
2017-10-15T03:27:07.131Z,1014.4
2017-10-15T03:28:08.738Z,1014.4
2017-10-15T03:29:10.349Z,1014.4
2017-10-15T03:30:11.957Z,1014.4
2017-10-15T03:31:13.563Z,1014.4
2017-10-15T03:32:15.182Z,1014.4
2017-10-15T03:33:16.803Z,1014.4
2017-10-15T03:34:18.412Z,1014.4
2017-10-15T03:35:20.016Z,1014.4
2017-10-15T03:36:21.619Z,1014.4
2017-10-15T03:37:23.233Z,1014.4
2017-10-15T03:38:24.845Z,1014.4
2017-10-15T03:39:26.451Z,1014.4
2017-10-15T03:40:28.068Z,1014.4
2017-10-15T03:41:29.671Z,1014.4
2017-10-15T03:42:31.275Z,1014.5
2017-10-15T03:43:32.880Z,1014.5
2017-10-15T03:44:34.485Z,1014.4
2017-10-15T03:45:36.098Z,1014.4
2017-10-15T03:46:37.705Z,1014.4
2017-10-15T03:47:39.322Z,1014.5
2017-10-15T03:48:40.920Z,1014.5
2017-10-15T03:49:42.532Z,1014.4
2017-10-15T03:50:44.134Z,1014.4
2017-10-15T03:51:45.746Z,1014.4
2017-10-15T03:52:47.351Z,1014.4
2017-10-15T03:53:48.964Z,1014.4
2017-10-15T03:54:50.572Z,1014.4
2017-10-15T03:55:52.178Z,1014.3
2017-10-15T03:56:53.787Z,1014.4
2017-10-15T03:57:55.396Z,1014.3
2017-10-15T03:58:57.006Z,1014.4
2017-10-15T03:59:58.617Z,1014.3
2017-10-15T04:01:00.222Z,1014.3
2017-10-15T04:02:01.834Z,1014.4
2017-10-15T04:03:03.441Z,1014.3
2017-10-15T04:04:05.045Z,1014.3
2017-10-15T04:05:06.657Z,1014.3
2017-10-15T04:06:08.261Z,1014.3
2017-10-15T04:07:09.875Z,1014.3
2017-10-15T04:08:11.481Z,1014.3
2017-10-15T04:09:13.092Z,1014.4
2017-10-15T04:10:14.697Z,1014.4
2017-10-15T04:11:16.306Z,1014.4
2017-10-15T04:12:17.909Z,1014.4
2017-10-15T04:13:19.515Z,1014.4
2017-10-15T04:14:21.122Z,1014.4
2017-10-15T04:15:22.732Z,1014.4
2017-10-15T04:16:24.338Z,1014.4
2017-10-15T04:17:25.946Z,1014.4
2017-10-15T04:18:27.548Z,1014.4
2017-10-15T04:19:29.163Z,1014.4
2017-10-15T04:20:30.768Z,1014.4
2017-10-15T04:21:32.378Z,1014.4
2017-10-15T04:22:33.990Z,1014.4
2017-10-15T04:23:35.600Z,1014.4
2017-10-15T04:24:37.203Z,1014.4
2017-10-15T04:25:38.809Z,1014.4
2017-10-15T04:26:40.425Z,1014.4
2017-10-15T04:27:42.033Z,1014.4
2017-10-15T04:28:43.640Z,1014.4
2017-10-15T04:29:45.255Z,1014.4
2017-10-15T04:30:46.858Z,1014.4
2017-10-15T04:31:48.459Z,1014.4
2017-10-15T04:32:50.073Z,1014.4
2017-10-15T04:33:51.682Z,1014.3
2017-10-15T04:34:53.288Z,1014.3
2017-10-15T04:35:54.901Z,1014.4
2017-10-15T04:36:56.509Z,1014.3
2017-10-15T04:37:58.136Z,1014.3
2017-10-15T04:38:59.726Z,1014.4
2017-10-15T04:40:01.336Z,1014.4
2017-10-15T04:41:02.939Z,1014.4
2017-10-15T04:42:04.552Z,1014.3
2017-10-15T04:43:06.163Z,1014.3
2017-10-15T04:44:07.773Z,1014.3
2017-10-15T04:45:09.382Z,1014.3
2017-10-15T04:46:10.990Z,1014.3
2017-10-15T04:47:12.592Z,1014.3
2017-10-15T04:48:14.206Z,1014.3
2017-10-15T04:49:15.811Z,1014.3
2017-10-15T04:50:17.419Z,1014.3
2017-10-15T04:51:19.029Z,1014.3
2017-10-15T04:52:20.632Z,1014.3
2017-10-15T04:53:22.243Z,1014.3
2017-10-15T04:54:23.852Z,1014.3
2017-10-15T04:55:25.458Z,1014.3
2017-10-15T04:56:27.060Z,1014.3
2017-10-15T04:57:28.674Z,1014.3
2017-10-15T04:58:30.284Z,1014.3
2017-10-15T04:59:31.888Z,1014.3
2017-10-15T05:00:33.492Z,1014.3
2017-10-15T05:01:35.102Z,1014.3
2017-10-15T05:02:36.708Z,1014.3
2017-10-15T05:03:38.319Z,1014.3
2017-10-15T05:04:39.930Z,1014.3
2017-10-15T05:05:41.535Z,1014.3
2017-10-15T05:06:43.146Z,1014.3
2017-10-15T05:07:44.749Z,1014.3
2017-10-15T05:08:46.352Z,1014.3
2017-10-15T05:09:47.967Z,1014.3
2017-10-15T05:10:49.574Z,1014.3
2017-10-15T05:11:51.178Z,1014.3
2017-10-15T05:12:52.786Z,1014.3
2017-10-15T05:13:54.397Z,1014.2
2017-10-15T05:14:56.012Z,1014.2
2017-10-15T05:15:57.617Z,1014.2
2017-10-15T05:16:59.227Z,1014.2
2017-10-15T05:18:00.833Z,1014.2
2017-10-15T05:19:02.444Z,1014.2
2017-10-15T05:20:04.059Z,1014.2
2017-10-15T05:21:05.662Z,1014.2
2017-10-15T05:22:07.275Z,1014.2
2017-10-15T05:23:08.881Z,1014.2
2017-10-15T05:24:10.492Z,1014.2
2017-10-15T05:25:12.107Z,1014.3
2017-10-15T05:26:13.708Z,1014.2
2017-10-15T05:27:15.311Z,1014.2
2017-10-15T05:28:16.920Z,1014.3
2017-10-15T05:29:18.524Z,1014.3
2017-10-15T05:30:20.136Z,1014.3
2017-10-15T05:31:21.740Z,1014.3
2017-10-15T05:32:23.360Z,1014.2
2017-10-15T05:33:24.963Z,1014.3
2017-10-15T05:34:26.572Z,1014.2
2017-10-15T05:35:28.186Z,1014.2
2017-10-15T05:36:29.791Z,1014.3
2017-10-15T05:37:31.404Z,1014.2
2017-10-15T05:38:33.005Z,1014.2
2017-10-15T05:39:34.620Z,1014.3
2017-10-15T05:40:36.224Z,1014.2
2017-10-15T05:41:37.837Z,1014.2
2017-10-15T05:42:39.440Z,1014.2
2017-10-15T05:43:41.053Z,1014.2
2017-10-15T05:44:42.658Z,1014.2
2017-10-15T05:45:44.297Z,1014.2
2017-10-15T05:46:45.896Z,1014.2
2017-10-15T05:47:47.514Z,1014.2
2017-10-15T05:48:49.122Z,1014.2
2017-10-15T05:49:50.733Z,1014.2
2017-10-15T05:50:52.344Z,1014.2
2017-10-15T05:51:53.958Z,1014.2
2017-10-15T05:52:55.563Z,1014.2
2017-10-15T05:53:57.177Z,1014.2
2017-10-15T05:54:58.797Z,1014.2
2017-10-15T05:56:00.409Z,1014.2
2017-10-15T05:57:02.016Z,1014.1
2017-10-15T05:58:03.626Z,1014.2
2017-10-15T05:59:05.238Z,1014.1
2017-10-15T06:00:06.847Z,1014.1
2017-10-15T06:01:08.457Z,1014.1
2017-10-15T06:02:10.065Z,1014.1
2017-10-15T06:03:11.684Z,1014.1
2017-10-15T06:04:13.291Z,1014.1
2017-10-15T06:05:14.896Z,1014.1
2017-10-15T06:06:16.505Z,1014.1
2017-10-15T06:07:18.119Z,1014.0
2017-10-15T06:08:19.731Z,1014.0
2017-10-15T06:09:21.338Z,1014.1
2017-10-15T06:10:22.948Z,1014.0
2017-10-15T06:11:24.710Z,1014.1
2017-10-15T06:12:28.601Z,1014.1
2017-10-15T06:13:30.353Z,1014.1
2017-10-15T06:14:31.959Z,1014.1
2017-10-15T06:15:33.671Z,1014.1
2017-10-15T06:16:35.279Z,1014.1
2017-10-15T06:17:36.886Z,1014.1
2017-10-15T06:18:38.495Z,1014.1
2017-10-15T06:19:40.107Z,1014.1
2017-10-15T06:20:42.023Z,1014.1
2017-10-15T06:21:43.876Z,1014.1
2017-10-15T06:22:45.780Z,1014.1
2017-10-15T06:23:47.709Z,1014.1
2017-10-15T06:24:49.314Z,1014.1
2017-10-15T06:25:51.029Z,1014.2
2017-10-15T06:26:52.635Z,1014.2
2017-10-15T06:27:54.250Z,1014.2
2017-10-15T06:28:55.855Z,1014.2
2017-10-15T06:29:57.471Z,1014.2
2017-10-15T06:30:59.080Z,1014.3
2017-10-15T06:32:00.700Z,1014.3
2017-10-15T06:33:02.305Z,1014.2
2017-10-15T06:34:03.958Z,1014.2
2017-10-15T06:35:05.568Z,1014.3
2017-10-15T06:36:07.184Z,1014.2
2017-10-15T06:37:08.795Z,1014.2
2017-10-15T06:38:15.051Z,1014.2
2017-10-15T06:39:21.208Z,1014.3
2017-10-15T06:40:27.439Z,1014.2
2017-10-15T06:41:33.751Z,1014.2
2017-10-15T06:42:39.982Z,1014.2
2017-10-15T06:43:48.446Z,1014.3
2017-10-15T06:44:56.752Z,1014.2
2017-10-15T06:46:05.048Z,1014.3
2017-10-15T06:47:11.259Z,1014.3
2017-10-15T06:48:17.466Z,1014.2
2017-10-15T06:49:23.625Z,1014.2
2017-10-15T06:50:29.850Z,1014.2
2017-10-15T06:51:36.006Z,1014.2
2017-10-15T06:52:42.361Z,1014.2
2017-10-15T06:53:48.508Z,1014.2
2017-10-15T06:54:55.067Z,1014.2
2017-10-15T06:56:01.223Z,1014.2
2017-10-15T06:57:06.955Z,1014.2
2017-10-15T06:58:13.108Z,1014.2
2017-10-15T06:59:14.815Z,1014.2
2017-10-15T07:00:21.032Z,1014.3
2017-10-15T07:01:27.211Z,1014.2
2017-10-15T07:02:33.369Z,1014.2
2017-10-15T07:03:39.579Z,1014.2
2017-10-15T07:04:43.768Z,1014.2
2017-10-15T07:05:50.073Z,1014.2
2017-10-15T07:06:56.241Z,1014.2
2017-10-15T07:08:02.400Z,1014.2
2017-10-15T07:09:05.099Z,1014.2
2017-10-15T07:10:09.851Z,1014.2
2017-10-15T07:11:16.009Z,1014.2
2017-10-15T07:12:18.217Z,1014.2
2017-10-15T07:13:24.461Z,1014.2
2017-10-15T07:14:27.440Z,1014.2
2017-10-15T07:15:33.646Z,1014.1
2017-10-15T07:16:39.797Z,1014.1
2017-10-15T07:17:45.939Z,1014.1
2017-10-15T07:18:52.146Z,1014.2
2017-10-15T07:19:53.751Z,1014.2
2017-10-15T07:20:55.546Z,1014.3
2017-10-15T07:22:01.753Z,1014.3
2017-10-15T07:23:07.957Z,1014.4
2017-10-15T07:52:27.412Z,1014.5
2017-10-15T07:53:33.598Z,1014.5
2017-10-15T07:55:30.324Z,1014.5
2017-10-15T07:56:33.186Z,1014.5
2017-10-15T07:58:29.449Z,1014.5
2017-10-15T07:59:33.564Z,1014.5
2017-10-15T08:01:30.248Z,1014.5
2017-10-15T08:02:35.362Z,1014.5
2017-10-15T08:04:30.559Z,1014.5
2017-10-15T08:05:34.438Z,1014.5
2017-10-15T08:07:29.386Z,1014.5
2017-10-15T08:08:31.918Z,1014.5
2017-10-15T08:10:28.312Z,1014.5
2017-10-15T08:11:34.509Z,1014.5
2017-10-15T08:13:28.104Z,1014.5
2017-10-15T08:14:29.903Z,1014.5
2017-10-15T08:15:32.942Z,1014.5
2017-10-15T08:16:38.502Z,1014.5
2017-10-15T08:17:43.286Z,1014.5
2017-10-15T08:18:49.527Z,1014.5
2017-10-15T08:19:55.777Z,1014.5
2017-10-15T08:21:00.564Z,1014.5
2017-10-15T08:22:02.202Z,1014.5
2017-10-15T08:23:03.834Z,1014.4
2017-10-15T08:24:05.863Z,1014.4
2017-10-15T08:25:12.124Z,1014.4
2017-10-15T08:26:17.736Z,1014.4
2017-10-15T08:27:23.931Z,1014.4
2017-10-15T08:28:30.134Z,1014.4
2017-10-15T08:29:32.283Z,1014.4
2017-10-15T08:30:35.457Z,1014.3
2017-10-15T08:31:41.700Z,1014.3
2017-10-15T08:32:47.892Z,1014.3
2017-10-15T08:33:54.690Z,1014.3
2017-10-15T08:35:00.866Z,1014.3
2017-10-15T08:36:07.134Z,1014.3
2017-10-15T08:37:13.282Z,1014.3
2017-10-15T08:38:19.478Z,1014.3
2017-10-15T08:39:25.672Z,1014.2
2017-10-15T08:40:31.919Z,1014.2
2017-10-15T08:41:38.115Z,1014.2
2017-10-15T08:42:44.379Z,1014.2
2017-10-15T08:43:50.566Z,1014.2
2017-10-15T08:44:57.223Z,1014.2
2017-10-15T08:46:03.528Z,1014.1
2017-10-15T08:47:10.084Z,1014.1
2017-10-15T08:48:16.401Z,1014.2
2017-10-15T08:49:22.650Z,1014.2
2017-10-15T08:50:28.899Z,1014.1
2017-10-15T08:51:35.097Z,1014.2
2017-10-15T08:52:41.355Z,1014.2
2017-10-15T08:53:44.732Z,1014.1
2017-10-15T08:54:51.030Z,1014.2
2017-10-15T08:55:57.277Z,1014.1
2017-10-15T08:57:03.535Z,1014.2
2017-10-15T08:58:10.022Z,1014.2
2017-10-15T08:59:16.260Z,1014.2
2017-10-15T09:00:22.447Z,1014.2
2017-10-15T09:01:28.633Z,1014.2
2017-10-15T09:02:35.401Z,1014.1
2017-10-15T09:03:41.585Z,1014.1
2017-10-15T09:04:48.205Z,1014.1
2017-10-15T09:05:54.380Z,1014.1
2017-10-15T09:06:59.937Z,1014.1
2017-10-15T09:08:06.592Z,1014.1
2017-10-15T09:09:12.822Z,1014.1
2017-10-15T09:10:19.003Z,1014.1
2017-10-15T09:11:25.249Z,1014.1
2017-10-15T09:12:31.495Z,1014.1
2017-10-15T09:13:37.758Z,1014.1
2017-10-15T09:14:43.944Z,1014.1
2017-10-15T09:15:50.135Z,1014.1
2017-10-15T09:16:56.394Z,1014.1
2017-10-15T09:18:02.576Z,1014.1
2017-10-15T09:19:05.552Z,1014.0
2017-10-15T09:20:11.848Z,1014.0
2017-10-15T09:21:14.397Z,1014.0
2017-10-15T09:22:19.450Z,1014.0
2017-10-15T09:23:21.331Z,1014.0
2017-10-15T09:24:27.014Z,1014.0
2017-10-15T09:25:30.729Z,1014.0
2017-10-15T09:26:33.514Z,1013.9
2017-10-15T09:27:35.263Z,1013.9
2017-10-15T09:28:39.019Z,1013.9
2017-10-15T09:29:43.836Z,1013.9
2017-10-15T09:30:46.786Z,1013.9
2017-10-15T09:31:51.115Z,1014.0
2017-10-15T09:32:54.164Z,1013.9
2017-10-15T09:33:56.094Z,1013.9
2017-10-15T09:34:58.584Z,1013.9
2017-10-15T09:36:04.621Z,1013.9
2017-10-15T09:37:10.877Z,1013.8
2017-10-15T09:38:14.048Z,1013.8
2017-10-15T09:39:15.866Z,1013.8
2017-10-15T09:40:19.959Z,1013.8
2017-10-15T09:41:26.227Z,1013.7
2017-10-15T09:42:30.705Z,1013.8
2017-10-15T09:43:33.130Z,1013.7
2017-10-15T09:44:36.297Z,1013.7
2017-10-15T09:45:41.585Z,1013.7
2017-10-15T09:46:46.526Z,1013.7
2017-10-15T09:47:52.665Z,1013.7
2017-10-15T09:48:56.088Z,1013.7
2017-10-15T09:50:02.362Z,1013.7
2017-10-15T09:51:04.493Z,1013.8
2017-10-15T09:52:10.628Z,1013.8
2017-10-15T09:53:15.121Z,1013.7
2017-10-15T09:54:17.443Z,1013.7
2017-10-15T09:55:19.995Z,1013.7
2017-10-15T09:56:24.117Z,1013.7
2017-10-15T09:57:26.064Z,1013.7
2017-10-15T09:58:32.355Z,1013.7
2017-10-15T09:59:38.545Z,1013.6
2017-10-15T10:00:44.804Z,1013.6
2017-10-15T10:01:51.059Z,1013.6
2017-10-15T10:02:57.249Z,1013.7
2017-10-15T10:04:03.501Z,1013.7
2017-10-15T10:05:09.687Z,1013.6
2017-10-15T10:06:15.936Z,1013.6
2017-10-15T10:07:22.159Z,1013.6
2017-10-15T10:08:28.470Z,1013.6
2017-10-15T10:09:34.651Z,1013.6
2017-10-15T10:10:40.902Z,1013.6
2017-10-15T10:11:47.093Z,1013.5
2017-10-15T10:12:53.231Z,1013.5
2017-10-15T10:13:59.316Z,1013.6
2017-10-15T10:15:01.303Z,1013.6
2017-10-15T10:16:07.163Z,1013.5
2017-10-15T10:17:13.267Z,1013.6
2017-10-15T10:18:16.473Z,1013.5
2017-10-15T10:19:22.690Z,1013.5
2017-10-15T10:20:28.754Z,1013.5
2017-10-15T10:21:34.842Z,1013.5
2017-10-15T10:22:38.337Z,1013.5
2017-10-15T10:23:44.447Z,1013.5
2017-10-15T10:24:50.556Z,1013.5
2017-10-15T10:25:56.604Z,1013.5
2017-10-15T10:27:01.508Z,1013.5
2017-10-15T10:28:07.640Z,1013.5
2017-10-15T10:29:10.014Z,1013.5
2017-10-15T10:30:16.000Z,1013.4
2017-10-15T10:31:19.450Z,1013.5
2017-10-15T10:32:22.972Z,1013.5
2017-10-15T10:33:29.201Z,1013.5
2017-10-15T10:34:34.711Z,1013.4
2017-10-15T10:35:40.978Z,1013.4
2017-10-15T10:36:47.266Z,1013.4
2017-10-15T10:37:53.532Z,1013.4
2017-10-15T10:39:01.436Z,1013.4
2017-10-15T10:40:08.734Z,1013.4
2017-10-15T10:41:15.091Z,1013.4
2017-10-15T10:42:23.223Z,1013.4
2017-10-15T10:43:31.358Z,1013.4
2017-10-15T10:44:39.399Z,1013.4
2017-10-15T10:45:47.450Z,1013.4
2017-10-15T10:46:55.864Z,1013.3
2017-10-15T10:47:59.857Z,1013.3
2017-10-15T10:49:07.351Z,1013.3
2017-10-15T10:50:14.855Z,1013.3
2017-10-15T10:51:22.466Z,1013.4
2017-10-15T10:52:30.041Z,1013.3
2017-10-15T10:53:37.580Z,1013.3
2017-10-15T10:54:45.121Z,1013.3
2017-10-15T10:55:52.747Z,1013.3
2017-10-15T10:57:00.280Z,1013.3
2017-10-15T10:58:07.875Z,1013.3
2017-10-15T10:59:15.415Z,1013.3
2017-10-15T11:00:26.390Z,1013.2
2017-10-15T11:01:32.591Z,1013.3
2017-10-15T11:02:38.857Z,1013.2
2017-10-15T11:03:40.443Z,1013.2
2017-10-15T11:04:42.088Z,1013.2
2017-10-15T11:05:43.713Z,1013.1
2017-10-15T11:06:45.347Z,1013.1
2017-10-15T11:07:46.980Z,1013.2
2017-10-15T11:08:48.608Z,1013.1
2017-10-15T11:09:50.235Z,1013.2
2017-10-15T11:10:51.871Z,1013.2
2017-10-15T11:11:53.498Z,1013.1
2017-10-15T11:12:55.123Z,1013.2
2017-10-15T11:13:56.755Z,1013.1
2017-10-15T11:14:58.387Z,1013.1
2017-10-15T11:16:00.020Z,1013.1
2017-10-15T11:17:01.641Z,1013.1
2017-10-15T11:18:03.274Z,1013.1
2017-10-15T11:19:04.937Z,1013.1
2017-10-15T11:20:06.561Z,1013.0
2017-10-15T11:21:08.189Z,1013.0
2017-10-15T11:22:09.813Z,1013.0
2017-10-15T11:23:11.449Z,1013.0
2017-10-15T11:24:13.073Z,1013.0
2017-10-15T11:25:14.704Z,1013.0
2017-10-15T11:26:16.330Z,1013.1
2017-10-15T11:27:17.960Z,1013.0
2017-10-15T11:28:19.592Z,1012.9
2017-10-15T11:29:21.216Z,1012.9
2017-10-15T11:30:22.844Z,1012.9
2017-10-15T11:31:24.478Z,1012.9
2017-10-15T11:32:26.107Z,1012.8
2017-10-15T11:33:27.730Z,1012.8
2017-10-15T11:34:29.364Z,1012.8
2017-10-15T11:35:30.996Z,1012.8
2017-10-15T11:36:32.626Z,1012.8
2017-10-15T11:37:34.254Z,1012.8
2017-10-15T11:38:35.892Z,1012.8
2017-10-15T11:39:37.507Z,1012.8
2017-10-15T11:40:39.138Z,1012.7
2017-10-15T11:41:40.762Z,1012.7
2017-10-15T11:42:42.398Z,1012.8
2017-10-15T11:43:44.023Z,1012.8
2017-10-15T11:44:45.649Z,1012.7
2017-10-15T11:45:47.282Z,1012.8
2017-10-15T11:46:48.911Z,1012.7
2017-10-15T11:47:50.536Z,1012.7
2017-10-15T11:48:52.161Z,1012.8
2017-10-15T11:49:53.787Z,1012.7
2017-10-15T11:50:55.421Z,1012.7
2017-10-15T11:51:57.048Z,1012.7
2017-10-15T11:52:58.675Z,1012.7
2017-10-15T11:54:00.298Z,1012.7
2017-10-15T11:55:01.921Z,1012.6
2017-10-15T11:56:03.553Z,1012.6
2017-10-15T11:57:05.183Z,1012.6
2017-10-15T11:58:06.805Z,1012.6
2017-10-15T11:59:08.435Z,1012.6
2017-10-15T12:00:10.066Z,1012.6
2017-10-15T12:01:11.688Z,1012.5
2017-10-15T12:02:13.318Z,1012.5
2017-10-15T12:03:14.947Z,1012.5
2017-10-15T12:04:16.573Z,1012.4
2017-10-15T12:05:18.204Z,1012.5
2017-10-15T12:06:19.829Z,1012.5
2017-10-15T12:07:21.459Z,1012.5
2017-10-15T12:08:23.079Z,1012.4
2017-10-15T12:09:24.709Z,1012.4
2017-10-15T12:10:26.332Z,1012.5
2017-10-15T12:11:27.963Z,1012.4
2017-10-15T12:12:29.592Z,1012.5
2017-10-15T12:13:31.215Z,1012.5
2017-10-15T12:14:32.836Z,1012.5
2017-10-15T12:15:34.463Z,1012.5
2017-10-15T12:16:36.083Z,1012.5
2017-10-15T12:17:37.713Z,1012.4
2017-10-15T12:18:39.335Z,1012.3
2017-10-15T12:19:40.957Z,1012.3
2017-10-15T12:20:42.580Z,1012.3
2017-10-15T12:21:44.207Z,1012.2
2017-10-15T12:22:45.830Z,1012.3
2017-10-15T12:23:47.452Z,1012.3
2017-10-15T12:24:49.077Z,1012.2
2017-10-15T12:25:50.698Z,1012.2
2017-10-15T12:26:52.326Z,1012.2
2017-10-15T12:27:53.954Z,1012.2
2017-10-15T12:28:55.571Z,1012.2
2017-10-15T12:29:57.193Z,1012.2
2017-10-15T12:30:58.824Z,1012.2
2017-10-15T12:32:00.441Z,1012.2
2017-10-15T12:33:02.065Z,1012.2
2017-10-15T12:34:03.686Z,1012.1
2017-10-15T12:35:05.317Z,1012.2
2017-10-15T12:36:06.934Z,1012.1
2017-10-15T12:37:08.554Z,1012.1
2017-10-15T12:38:10.174Z,1012.2
2017-10-15T12:39:11.797Z,1012.2
2017-10-15T12:40:13.421Z,1012.1
2017-10-15T12:41:15.052Z,1012.1
2017-10-15T12:42:16.676Z,1012.1
2017-10-15T12:43:18.303Z,1012.2
2017-10-15T12:44:19.930Z,1012.1
2017-10-15T12:45:21.554Z,1012.2
2017-10-15T12:46:23.174Z,1012.1
2017-10-15T12:47:24.801Z,1012.1
2017-10-15T12:48:26.423Z,1012.0
2017-10-15T12:49:28.048Z,1012.0
2017-10-15T12:50:29.673Z,1012.0
2017-10-15T12:51:31.292Z,1012.0
2017-10-15T12:52:32.914Z,1012.0
2017-10-15T12:53:34.539Z,1012.0
2017-10-15T12:54:36.166Z,1012.0
2017-10-15T12:55:37.795Z,1011.9
2017-10-15T12:56:39.417Z,1012.0
2017-10-15T12:57:41.042Z,1011.9
2017-10-15T12:58:42.659Z,1012.0
2017-10-15T12:59:44.288Z,1011.9
2017-10-15T13:00:45.910Z,1011.9
2017-10-15T13:01:47.539Z,1012.0
2017-10-15T13:02:49.160Z,1011.9
2017-10-15T13:03:50.794Z,1011.9
2017-10-15T13:04:52.412Z,1011.9
2017-10-15T13:05:54.042Z,1012.0
2017-10-15T13:06:55.666Z,1011.9
2017-10-15T13:07:57.286Z,1011.9
2017-10-15T13:08:58.914Z,1011.9
2017-10-15T13:10:00.539Z,1011.9
2017-10-15T13:11:02.161Z,1011.9
2017-10-15T13:12:03.779Z,1011.9
2017-10-15T13:13:05.404Z,1011.9
2017-10-15T13:14:07.021Z,1011.9
2017-10-15T13:15:08.643Z,1011.8
2017-10-15T13:16:10.272Z,1011.9
2017-10-15T13:17:11.895Z,1011.8
2017-10-15T13:18:13.516Z,1011.8
2017-10-15T13:19:15.135Z,1011.7
2017-10-15T13:20:16.759Z,1011.8
2017-10-15T13:21:18.383Z,1011.7
2017-10-15T13:22:20.005Z,1011.8
2017-10-15T13:23:21.629Z,1011.8
2017-10-15T13:24:23.249Z,1011.8
2017-10-15T13:25:24.869Z,1011.7
2017-10-15T13:26:26.489Z,1011.7
2017-10-15T13:27:28.113Z,1011.7
2017-10-15T13:28:29.735Z,1011.7
2017-10-15T13:29:31.352Z,1011.8
2017-10-15T13:30:32.977Z,1011.7
2017-10-15T13:31:34.610Z,1011.7
2017-10-15T13:32:36.222Z,1011.7
2017-10-15T13:33:37.840Z,1011.7
2017-10-15T13:34:39.464Z,1011.7
2017-10-15T13:35:41.087Z,1011.7
2017-10-15T13:36:42.705Z,1011.6